Time;durP1;ratioP1;P1;durP2;ratioP2;P2;SDS_P1;SDS_P2;PMS_P1;PMS_P2;Temp;Humidity;BMP_temperature;BMP_pressure;BME280_temperature;BME280_humidity;BME280_pressure;Samples;Min_cycle;Max_cycle;Signal;HPM_P1;HPM_P2
2022/05/31 00:02:09;;;;;;;10.70;10.40;;;9.20;99.90;;;;;;5031898;28;20251;-80
2022/05/31 00:04:38;;;;;;;10.77;10.47;;;9.20;99.90;;;;;;5032514;28;20262;-80
2022/05/31 00:07:07;;;;;;;10.80;10.50;;;9.10;99.90;;;;;;5032641;28;20232;-80
2022/05/31 00:09:36;;;;;;;10.80;10.50;;;9.10;99.90;;;;;;5030738;28;20232;-80
2022/05/31 00:12:08;;;;;;;10.73;10.43;;;9.10;99.90;;;;;;5032969;28;20239;-80
2022/05/31 00:14:36;;;;;;;10.83;10.53;;;9.10;99.90;;;;;;5033250;28;20232;-81
2022/05/31 00:17:06;;;;;;;10.70;10.40;;;9.00;99.90;;;;;;5032500;28;20242;-81
2022/05/31 00:19:34;;;;;;;10.80;10.50;;;9.00;99.90;;;;;;5031750;28;20266;-81
2022/05/31 00:22:08;;;;;;;10.50;10.20;;;8.90;99.90;;;;;;5032343;28;20253;-80
2022/05/31 00:24:39;;;;;;;10.87;10.57;;;8.90;99.90;;;;;;5032634;28;20232;-81
2022/05/31 00:27:13;;;;;;;10.83;10.53;;;8.90;99.90;;;;;;5032714;28;20232;-81
2022/05/31 00:29:41;;;;;;;10.83;10.53;;;8.80;99.90;;;;;;5030940;28;20243;-80
2022/05/31 00:32:13;;;;;;;10.67;10.37;;;8.80;99.90;;;;;;5028893;28;20327;-81
2022/05/31 00:34:46;;;;;;;10.40;10.10;;;8.70;99.90;;;;;;5027633;28;20228;-80
2022/05/31 00:37:14;;;;;;;10.53;10.23;;;8.70;99.90;;;;;;5030370;28;20232;-81
2022/05/31 00:39:42;;;;;;;10.50;10.20;;;8.70;99.90;;;;;;5027854;28;20232;-81
2022/05/31 00:42:14;;;;;;;10.63;10.33;;;8.60;99.90;;;;;;5028661;28;20232;-81
2022/05/31 00:44:42;;;;;;;10.47;10.17;;;8.60;99.90;;;;;;5028984;28;20237;-81
2022/05/31 00:47:14;;;;;;;10.53;10.23;;;8.60;99.90;;;;;;5030246;28;20269;-81
2022/05/31 00:49:47;;;;;;;10.73;10.43;;;8.50;99.90;;;;;;5024005;28;20258;-82
2022/05/31 00:52:23;;;;;;;10.70;10.40;;;8.50;99.90;;;;;;5023943;28;20236;-80
2022/05/31 00:55:04;;;;;;;10.90;10.60;;;8.50;99.90;;;;;;5022405;28;20239;-81
2022/05/31 00:57:41;;;;;;;10.80;10.50;;;8.50;99.90;;;;;;5021513;28;20289;-81
2022/05/31 01:00:14;;;;;;;10.53;10.23;;;8.40;99.90;;;;;;5024933;28;20263;-81
2022/05/31 01:02:44;;;;;;;10.80;10.50;;;8.40;99.90;;;;;;5025381;28;20247;-81
2022/05/31 01:05:14;;;;;;;10.63;10.33;;;8.30;99.90;;;;;;5025107;28;20266;-81
2022/05/31 01:07:42;;;;;;;10.67;10.37;;;8.30;99.90;;;;;;5025396;28;20267;-82
2022/05/31 01:10:13;;;;;;;10.57;10.27;;;8.30;99.90;;;;;;5024206;28;20224;-81
2022/05/31 01:12:45;;;;;;;10.90;10.60;;;8.20;99.90;;;;;;5026586;28;20240;-82
2022/05/31 01:15:15;;;;;;;10.80;10.50;;;8.20;99.90;;;;;;5025449;28;20286;-81
2022/05/31 01:17:45;;;;;;;10.87;10.57;;;8.30;99.90;;;;;;5024670;28;20259;-81
2022/05/31 01:20:21;;;;;;;10.90;10.60;;;8.20;99.90;;;;;;5025687;28;20262;-81
2022/05/31 01:22:55;;;;;;;10.67;10.37;;;8.20;99.90;;;;;;5034544;28;20203;-81
2022/05/31 01:25:41;;;;;;;10.80;10.50;;;8.20;99.90;;;;;;5035031;28;20220;-81
2022/05/31 01:28:29;;;;;;;10.73;10.43;;;8.10;99.90;;;;;;5035019;28;20232;-80
2022/05/31 01:31:04;;;;;;;11.03;10.73;;;8.10;99.90;;;;;;5035054;28;20247;-81
2022/05/31 01:33:39;;;;;;;11.10;10.80;;;8.10;99.90;;;;;;5035783;27;20204;-80
2022/05/31 01:36:14;;;;;;;10.97;10.67;;;8.00;99.90;;;;;;5033744;28;20258;-81
2022/05/31 01:38:49;;;;;;;10.77;10.47;;;8.00;99.90;;;;;;5035663;27;20236;-81
2022/05/31 01:41:24;;;;;;;10.83;10.53;;;8.00;99.90;;;;;;5035600;27;20224;-81
2022/05/31 01:43:55;;;;;;;10.73;10.43;;;7.90;99.90;;;;;;5034800;28;20215;-80
2022/05/31 01:46:31;;;;;;;10.70;10.40;;;7.90;99.90;;;;;;5032061;28;20232;-81
2022/05/31 01:49:00;;;;;;;10.73;10.43;;;7.90;99.90;;;;;;5031319;28;20261;-81
2022/05/31 01:51:31;;;;;;;10.80;10.50;;;7.90;99.90;;;;;;5031481;28;20334;-80
2022/05/31 01:54:00;;;;;;;10.60;10.30;;;7.90;99.90;;;;;;5031563;28;20229;-81
2022/05/31 01:56:28;;;;;;;10.60;10.30;;;7.80;99.90;;;;;;5027884;28;20232;-81
2022/05/31 01:58:57;;;;;;;10.60;10.30;;;7.80;99.90;;;;;;5031991;28;20262;-81
2022/05/31 02:01:26;;;;;;;10.80;10.50;;;7.70;99.90;;;;;;5030330;28;20240;-80
2022/05/31 02:03:55;;;;;;;10.90;10.60;;;7.70;99.90;;;;;;5023960;28;20283;-81
2022/05/31 02:06:34;;;;;;;10.70;10.40;;;7.70;99.90;;;;;;5024738;28;20250;-82
2022/05/31 02:09:04;;;;;;;10.77;10.47;;;7.70;99.90;;;;;;5026360;28;20236;-81
2022/05/31 02:11:34;;;;;;;10.70;10.40;;;7.60;99.90;;;;;;5025716;28;20243;-80
2022/05/31 02:14:02;;;;;;;10.47;10.17;;;7.60;99.90;;;;;;5024214;28;20236;-81
2022/05/31 02:16:32;;;;;;;10.53;10.23;;;7.50;99.90;;;;;;5024553;28;20224;-80
2022/05/31 02:19:23;;;;;;;10.80;10.50;;;7.40;99.90;;;;;;5023067;28;20266;-81
2022/05/31 02:21:54;;;;;;;10.57;10.27;;;7.40;99.90;;;;;;5023924;28;20235;-82
2022/05/31 02:24:26;;;;;;;10.67;10.37;;;7.40;99.90;;;;;;5023010;28;20232;-81
2022/05/31 02:26:55;;;;;;;10.77;10.47;;;7.50;99.90;;;;;;5023144;28;20231;-82
2022/05/31 02:29:27;;;;;;;10.37;10.07;;;7.50;99.90;;;;;;5023850;28;20236;-82
2022/05/31 02:31:57;;;;;;;10.63;10.33;;;7.40;99.90;;;;;;5025049;28;20232;-81
2022/05/31 02:34:35;;;;;;;10.50;10.20;;;7.50;99.90;;;;;;5026756;28;20232;-82
2022/05/31 02:37:07;;;;;;;10.40;10.10;;;7.50;99.90;;;;;;5025829;28;20293;-81
2022/05/31 02:39:35;;;;;;;10.70;10.40;;;7.50;99.90;;;;;;5025503;28;20262;-81
2022/05/31 02:42:04;;;;;;;10.67;10.37;;;7.50;99.90;;;;;;5025385;28;20294;-82
2022/05/31 02:44:33;;;;;;;10.60;10.30;;;7.40;99.90;;;;;;5024625;28;20212;-81
2022/05/31 02:47:02;;;;;;;10.67;10.37;;;7.40;99.90;;;;;;5026133;28;20232;-81
2022/05/31 02:49:30;;;;;;;11.40;11.00;;;7.40;99.90;;;;;;5025590;28;20236;-82
2022/05/31 02:52:01;;;;;;;10.93;10.63;;;7.50;99.90;;;;;;5024086;28;20240;-81
2022/05/31 02:54:31;;;;;;;10.70;10.40;;;7.50;99.90;;;;;;5024088;28;20221;-81
2022/05/31 02:56:59;;;;;;;10.73;10.43;;;7.50;99.90;;;;;;5026000;28;20232;-81
2022/05/31 02:59:30;;;;;;;10.90;10.60;;;7.50;99.90;;;;;;5025376;28;20236;-83
2022/05/31 03:01:59;;;;;;;10.90;10.60;;;7.50;99.90;;;;;;5024263;28;20263;-82
2022/05/31 03:04:28;;;;;;;11.20;10.80;;;7.50;99.90;;;;;;5024443;28;20714;-81
2022/05/31 03:07:01;;;;;;;10.83;10.53;;;7.50;99.90;;;;;;5024278;28;20254;-81
2022/05/31 03:09:36;;;;;;;10.83;10.53;;;7.50;99.90;;;;;;5025266;28;20236;-81
2022/05/31 03:12:09;;;;;;;10.90;10.60;;;7.50;99.90;;;;;;5024760;28;20231;-81
2022/05/31 03:14:44;;;;;;;11.23;10.83;;;7.50;99.90;;;;;;5025209;28;20258;-80
2022/05/31 03:17:25;;;;;;;11.50;11.10;;;7.50;99.90;;;;;;5025138;28;20319;-80
2022/05/31 03:20:03;;;;;;;11.13;10.73;;;7.50;99.90;;;;;;5024740;28;20239;-80
2022/05/31 03:22:38;;;;;;;11.20;10.80;;;7.50;99.90;;;;;;5024562;28;20224;-80
2022/05/31 03:25:18;;;;;;;10.97;10.67;;;7.40;99.90;;;;;;5025544;28;20277;-80
2022/05/31 03:27:48;;;;;;;10.93;10.63;;;7.40;99.90;;;;;;5024973;28;20236;-80
2022/05/31 03:30:16;;;;;;;10.77;10.47;;;7.40;99.90;;;;;;5024186;28;20236;-80
2022/05/31 03:32:46;;;;;;;10.50;10.20;;;7.40;99.90;;;;;;5024530;28;20232;-80
2022/05/31 03:35:14;;;;;;;10.30;10.00;;;7.30;99.90;;;;;;5025223;28;20229;-81
2022/05/31 03:37:43;;;;;;;10.60;10.30;;;7.30;99.90;;;;;;5024687;28;20254;-81
2022/05/31 03:40:56;;;;;;;10.87;10.57;;;7.20;99.90;;;;;;5030857;28;20266;-81
2022/05/31 03:43:02;;;;;;;10.60;10.30;;;7.20;99.90;;;;;;5028706;28;20303;-79
2022/05/31 03:45:34;;;;;;;10.50;10.20;;;7.20;99.90;;;;;;5031355;28;20235;-80
2022/05/31 03:48:04;;;;;;;10.67;10.37;;;7.10;99.90;;;;;;5035044;28;20224;-82
2022/05/31 03:50:34;;;;;;;10.70;10.40;;;7.10;99.90;;;;;;5033878;28;20270;-81
2022/05/31 03:53:04;;;;;;;10.70;10.40;;;7.10;99.90;;;;;;5035722;28;20331;-81
2022/05/31 03:55:38;;;;;;;10.57;10.27;;;7.10;99.90;;;;;;5037510;27;20212;-81
2022/05/31 03:58:05;;;;;;;10.70;10.40;;;7.10;99.90;;;;;;5037498;27;20224;-80
2022/05/31 04:00:35;;;;;;;10.93;10.63;;;7.10;99.90;;;;;;5037975;27;20246;-81
2022/05/31 04:03:03;;;;;;;11.20;10.80;;;7.10;99.90;;;;;;5036417;28;20216;-80
2022/05/31 04:05:31;;;;;;;11.00;10.70;;;7.10;99.90;;;;;;5036636;27;20231;-81
2022/05/31 04:08:06;;;;;;;11.30;10.90;;;7.20;99.90;;;;;;5038547;27;20262;-81
2022/05/31 04:10:37;;;;;;;11.20;10.80;;;7.20;99.90;;;;;;5038453;27;20212;-81
2022/05/31 04:13:05;;;;;;;11.10;10.77;;;7.20;99.90;;;;;;5038709;27;20216;-80
2022/05/31 04:15:34;;;;;;;10.67;10.37;;;7.20;99.90;;;;;;5038478;27;20205;-81
2022/05/31 04:18:02;;;;;;;11.23;10.83;;;7.20;99.90;;;;;;5038707;27;20242;-79
2022/05/31 04:20:30;;;;;;;11.30;10.90;;;7.20;99.90;;;;;;5128554;22;20321;-81
2022/05/31 04:25:43;;;;;;;11.43;11.03;;;7.10;99.90;;;;;;5109419;27;20277;-80
2022/05/31 04:28:11;;;;;;;11.50;11.10;;;7.00;99.90;;;;;;5112919;28;20225;-80
2022/05/31 04:30:39;;;;;;;11.00;10.70;;;6.90;99.90;;;;;;5087510;28;20237;-81
2022/05/31 04:33:09;;;;;;;11.07;10.77;;;6.90;99.90;;;;;;5083433;28;20253;-80
2022/05/31 04:35:38;;;;;;;11.47;11.07;;;6.90;99.90;;;;;;5101328;28;20225;-81
2022/05/31 04:38:07;;;;;;;11.40;11.00;;;7.00;99.90;;;;;;5101372;28;20233;-81
2022/05/31 04:40:40;;;;;;;11.23;10.83;;;7.00;99.90;;;;;;5102193;28;20233;-80
2022/05/31 04:43:07;;;;;;;11.27;10.87;;;7.00;99.90;;;;;;5102191;28;20236;-81
2022/05/31 04:45:37;;;;;;;11.20;10.80;;;7.10;99.90;;;;;;5113318;27;20194;-79
2022/05/31 04:48:05;;;;;;;11.20;10.87;;;7.20;99.90;;;;;;5120139;27;20233;-80
2022/05/31 04:50:34;;;;;;;11.53;11.13;;;7.30;99.90;;;;;;5120804;27;20252;-79
2022/05/31 04:53:04;;;;;;;11.33;10.93;;;7.40;99.90;;;;;;5115971;27;21039;-81
2022/05/31 04:55:33;;;;;;;10.90;10.60;;;7.50;99.90;;;;;;5103461;28;20233;-81
2022/05/31 04:58:14;;;;;;;10.90;10.60;;;7.60;99.90;;;;;;5103965;28;20232;-81
2022/05/31 05:00:42;;;;;;;10.93;10.63;;;7.70;99.90;;;;;;5102062;28;20237;-81
2022/05/31 05:03:11;;;;;;;11.10;10.80;;;7.90;99.90;;;;;;5102863;28;20252;-80
2022/05/31 05:05:40;;;;;;;10.83;10.53;;;8.00;99.90;;;;;;5101631;28;20329;-81
2022/05/31 05:08:09;;;;;;;10.90;10.60;;;8.20;99.90;;;;;;5102239;28;20280;-81
2022/05/31 05:10:38;;;;;;;11.00;10.70;;;8.40;99.90;;;;;;5101591;28;20233;-81
2022/05/31 05:13:11;;;;;;;10.90;10.60;;;8.50;99.90;;;;;;5102630;28;20225;-82
2022/05/31 05:15:40;;;;;;;10.70;10.40;;;8.70;99.90;;;;;;5101851;28;20217;-81
2022/05/31 05:18:08;;;;;;;10.87;10.57;;;8.80;99.90;;;;;;5102854;28;20241;-81
2022/05/31 05:20:39;;;;;;;11.00;10.70;;;8.90;99.90;;;;;;5101568;28;20233;-81
2022/05/31 05:23:07;;;;;;;10.70;10.40;;;9.10;99.90;;;;;;5102190;28;20238;-81
2022/05/31 05:25:36;;;;;;;10.60;10.30;;;9.20;99.90;;;;;;5102136;28;20236;-81
2022/05/31 05:30:38;;;;;;;10.70;10.40;;;9.40;99.90;;;;;;5102428;28;20355;-81
2022/05/31 05:30:53;;;;;;;10.33;10.03;;;9.60;99.90;;;;;;5102583;28;20241;-81
2022/05/31 05:33:21;;;;;;;10.30;10.00;;;9.80;99.90;;;;;;5103282;28;20226;-81
2022/05/31 05:35:50;;;;;;;10.43;10.13;;;9.90;99.90;;;;;;5103800;28;20278;-81
2022/05/31 05:38:20;;;;;;;10.60;10.30;;;10.00;99.90;;;;;;5105474;28;20233;-82
2022/05/31 05:40:49;;;;;;;10.83;10.53;;;10.10;99.90;;;;;;5103590;28;20233;-80
2022/05/31 05:43:19;;;;;;;10.90;10.60;;;10.30;99.90;;;;;;5103520;28;20956;-79
2022/05/31 05:45:49;;;;;;;10.80;10.50;;;10.40;99.90;;;;;;5104073;28;20236;-79
2022/05/31 05:48:22;;;;;;;10.37;10.07;;;10.50;99.90;;;;;;5104417;28;20233;-80
2022/05/31 05:50:49;;;;;;;10.50;10.20;;;10.70;99.90;;;;;;5103551;28;20287;-80
2022/05/31 05:53:17;;;;;;;10.23;9.93;;;10.80;99.90;;;;;;5103177;28;20225;-80
2022/05/31 05:55:46;;;;;;;10.50;10.20;;;11.00;99.90;;;;;;5102990;28;20232;-81
2022/05/31 05:58:16;;;;;;;10.60;10.30;;;11.10;99.90;;;;;;5102309;28;20225;-81
2022/05/31 06:00:50;;;;;;;10.90;10.60;;;11.30;99.90;;;;;;5105517;28;20233;-82
2022/05/31 06:03:27;;;;;;;10.43;10.13;;;11.40;99.90;;;;;;5103987;28;20213;-81
2022/05/31 06:05:55;;;;;;;10.90;10.60;;;11.60;99.90;;;;;;5105254;28;20225;-81
2022/05/31 06:08:28;;;;;;;10.60;10.30;;;11.70;99.90;;;;;;5111019;28;20236;-80
2022/05/31 06:11:06;;;;;;;10.23;9.93;;;11.90;99.90;;;;;;5104294;28;20233;-82
2022/05/31 06:13:40;;;;;;;10.50;10.20;;;12.00;99.90;;;;;;5102443;28;20314;-82
2022/05/31 06:16:10;;;;;;;10.40;10.10;;;12.10;99.90;;;;;;5105204;28;20251;-82
2022/05/31 06:18:45;;;;;;;10.50;10.20;;;12.30;99.90;;;;;;5098234;28;20241;-81
2022/05/31 06:21:15;;;;;;;10.70;10.40;;;12.40;99.90;;;;;;5105043;28;20236;-82
2022/05/31 06:23:43;;;;;;;10.70;10.40;;;12.60;99.90;;;;;;5105411;28;20218;-82
2022/05/31 06:26:11;;;;;;;10.67;10.37;;;12.80;99.90;;;;;;5103161;28;20279;-81
2022/05/31 06:28:39;;;;;;;10.90;10.60;;;12.90;99.90;;;;;;5106148;28;20311;-82
2022/05/31 06:31:06;;;;;;;10.77;10.47;;;13.00;99.90;;;;;;5107111;28;20237;-82
2022/05/31 06:33:34;;;;;;;10.70;10.40;;;13.20;99.90;;;;;;5105089;28;20251;-82
2022/05/31 06:36:04;;;;;;;10.83;10.53;;;13.30;99.90;;;;;;5105611;28;20233;-82
2022/05/31 06:38:32;;;;;;;11.07;10.77;;;13.50;99.90;;;;;;5104853;28;20252;-82
2022/05/31 06:41:04;;;;;;;11.10;10.80;;;13.60;99.90;;;;;;5103707;28;20229;-81
2022/05/31 06:43:35;;;;;;;10.93;10.63;;;13.70;99.90;;;;;;5114270;28;20226;-81
2022/05/31 06:46:05;;;;;;;11.07;10.77;;;13.90;99.90;;;;;;5109107;28;20233;-83
2022/05/31 06:48:34;;;;;;;11.00;10.70;;;14.00;99.90;;;;;;5108221;28;20297;-82
2022/05/31 06:51:12;;;;;;;10.60;10.30;;;14.00;99.90;;;;;;5107787;28;20229;-82
2022/05/31 06:59:16;;;;;;;10.43;10.13;;;14.30;99.90;;;;;;5108424;28;20229;-82
2022/05/31 07:01:47;;;;;;;10.40;10.10;;;14.50;99.90;;;;;;5106855;28;20237;-81
2022/05/31 07:04:14;;;;;;;10.40;10.10;;;14.60;99.90;;;;;;5108629;28;20244;-81
2022/05/31 07:06:53;;;;;;;10.20;9.90;;;14.70;99.90;;;;;;5110413;28;20240;-82
2022/05/31 07:09:22;;;;;;;10.63;10.32;;;14.70;99.90;;;;;;5110933;28;20240;-80
2022/05/31 07:11:52;;;;;;;10.57;10.27;;;14.80;99.90;;;;;;5108037;28;20238;-81
2022/05/31 07:14:21;;;;;;;10.73;10.43;;;14.80;99.90;;;;;;5108588;28;20243;-81
2022/05/31 07:16:50;;;;;;;11.03;10.73;;;14.90;99.90;;;;;;5108721;28;20217;-81
2022/05/31 07:19:19;;;;;;;10.18;9.88;;;15.00;99.90;;;;;;5109465;28;20268;-81
2022/05/31 07:21:58;;;;;;;10.10;9.80;;;15.10;99.90;;;;;;5114208;28;20275;-81
2022/05/31 07:24:28;;;;;;;10.10;9.80;;;15.10;99.90;;;;;;5121902;27;20247;-79
2022/05/31 07:26:57;;;;;;;10.27;9.98;;;15.30;99.90;;;;;;5108316;28;20221;-81
2022/05/31 07:29:28;;;;;;;10.18;9.88;;;15.40;99.90;;;;;;5116784;27;20213;-81
2022/05/31 07:31:55;;;;;;;10.05;9.75;;;15.50;99.90;;;;;;5120009;28;20209;-80
2022/05/31 07:34:25;;;;;;;10.82;10.52;;;15.70;99.90;;;;;;5111510;28;20229;-82
2022/05/31 07:36:57;;;;;;;11.00;10.70;;;15.90;99.90;;;;;;5106383;28;20221;-81
2022/05/31 07:39:25;;;;;;;11.02;10.73;;;16.00;99.90;;;;;;5107192;28;20241;-82
2022/05/31 07:41:54;;;;;;;10.80;10.50;;;16.10;99.90;;;;;;5107540;28;20229;-82
2022/05/31 07:44:23;;;;;;;10.68;10.38;;;16.20;99.90;;;;;;5103673;28;20229;-81
2022/05/31 07:46:53;;;;;;;10.07;9.77;;;16.30;99.90;;;;;;5105540;28;20280;-82
2022/05/31 07:49:22;;;;;;;10.10;9.80;;;16.40;99.90;;;;;;5104876;28;20295;-82
2022/05/31 07:51:52;;;;;;;10.18;9.88;;;16.50;99.90;;;;;;5105786;28;20233;-82
2022/05/31 07:54:21;;;;;;;10.48;10.18;;;16.50;99.90;;;;;;5106933;28;20233;-81
2022/05/31 07:56:50;;;;;;;10.70;10.40;;;16.60;99.90;;;;;;5100055;28;20243;-82
2022/05/31 07:59:19;;;;;;;11.18;10.88;;;16.80;99.90;;;;;;5109629;28;20241;-81
2022/05/31 08:01:49;;;;;;;10.93;10.63;;;17.00;99.90;;;;;;5104415;28;20233;-81
2022/05/31 08:04:18;;;;;;;11.07;10.77;;;17.10;99.90;;;;;;5103790;28;20229;-80
2022/05/31 08:06:49;;;;;;;11.18;10.88;;;17.20;99.90;;;;;;5107228;28;20252;-81
2022/05/31 08:09:17;;;;;;;11.15;10.85;;;17.40;99.90;;;;;;5106811;28;20233;-80
2022/05/31 08:11:57;;;;;;;11.20;10.90;;;17.40;99.90;;;;;;5105044;28;20252;-81
2022/05/31 08:14:25;;;;;;;10.45;10.15;;;17.50;99.90;;;;;;5086660;28;20252;-82
2022/05/31 08:16:54;;;;;;;10.40;10.10;;;17.60;99.90;;;;;;5086450;28;20222;-82
2022/05/31 08:19:23;;;;;;;10.82;10.52;;;17.80;99.90;;;;;;5085952;28;20273;-82
2022/05/31 08:21:53;;;;;;;10.57;10.27;;;17.90;99.90;;;;;;5086443;28;20229;-84
2022/05/31 08:24:23;;;;;;;10.10;9.80;;;18.00;99.90;;;;;;5085248;28;20235;-84
2022/05/31 08:27:02;;;;;;;10.30;10.00;;;18.10;99.90;;;;;;5086025;28;20226;-83
2022/05/31 08:29:30;;;;;;;10.43;10.13;;;18.20;99.90;;;;;;5087154;28;20237;-83
2022/05/31 08:32:00;;;;;;;10.50;10.20;;;18.30;99.90;;;;;;5087683;28;20269;-83
2022/05/31 08:34:30;;;;;;;10.40;10.10;;;18.40;99.90;;;;;;5086223;28;20658;-83
2022/05/31 08:37:01;;;;;;;10.80;10.50;;;18.70;99.90;;;;;;5086304;28;20221;-83
2022/05/31 08:39:28;;;;;;;10.50;10.20;;;18.90;99.90;;;;;;5120250;27;20328;-83
2022/05/31 08:42:07;;;;;;;10.80;10.50;;;19.10;99.90;;;;;;5116713;28;20317;-83
2022/05/31 08:44:53;;;;;;;10.40;10.10;;;19.20;99.90;;;;;;5107671;28;20237;-83
2022/05/31 08:47:36;;;;;;;10.70;10.40;;;19.30;99.90;;;;;;5107387;28;20225;-83
2022/05/31 08:53:32;;;;;;;10.60;10.30;;;19.40;99.90;;;;;;5103288;28;20237;-85
2022/05/31 08:58:57;;;;;;;10.63;10.32;;;19.50;99.90;;;;;;5104769;28;20222;-83
2022/05/31 09:01:30;;;;;;;10.60;10.30;;;19.50;99.90;;;;;;5099686;28;20302;-83
2022/05/31 09:04:09;;;;;;;10.55;10.25;;;19.70;99.90;;;;;;5106289;28;20236;-83
2022/05/31 09:06:46;;;;;;;10.45;10.15;;;19.70;99.90;;;;;;5086048;28;20229;-83
2022/05/31 09:09:24;;;;;;;10.45;10.15;;;19.90;99.90;;;;;;5086341;28;20222;-83
2022/05/31 09:12:01;;;;;;;10.75;10.45;;;20.00;99.90;;;;;;5086003;28;20242;-83
2022/05/31 09:14:50;;;;;;;10.50;10.20;;;20.10;99.90;;;;;;5085532;28;20236;-83
2022/05/31 09:17:26;;;;;;;10.93;10.63;;;20.20;99.90;;;;;;5103903;28;20225;-83
2022/05/31 09:20:04;;;;;;;10.80;10.50;;;20.30;99.90;;;;;;5125687;28;20228;-83
2022/05/31 09:22:45;;;;;;;10.38;10.07;;;20.50;99.90;;;;;;5127296;28;20232;-83
2022/05/31 09:25:21;;;;;;;10.40;10.10;;;20.60;99.90;;;;;;5110018;28;20256;-83
2022/05/31 09:27:50;;;;;;;10.20;9.90;;;20.70;99.90;;;;;;5108818;28;20257;-83
2022/05/31 09:33:18;;;;;;;10.73;10.43;;;21.00;99.90;;;;;;5126413;28;20248;-83
2022/05/31 09:36:12;;;;;;;10.48;10.18;;;21.20;99.90;;;;;;5129810;28;20236;-83
2022/05/31 09:39:27;;;;;;;10.90;10.60;;;21.40;99.90;;;;;;5130212;27;20229;-84
2022/05/31 09:42:03;;;;;;;11.02;10.73;;;21.50;99.90;;;;;;5130595;28;20229;-83
2022/05/31 09:44:43;;;;;;;10.63;10.32;;;21.70;99.90;;;;;;5129489;28;20287;-84
2022/05/31 09:47:20;;;;;;;10.98;10.68;;;21.80;99.90;;;;;;5130019;28;20252;-83
2022/05/31 09:49:52;;;;;;;10.88;10.57;;;21.80;99.90;;;;;;5129602;27;20240;-83
2022/05/31 09:52:30;;;;;;;10.70;10.40;;;22.10;99.90;;;;;;5108184;28;20232;-84
2022/05/31 09:58:11;;;;;;;10.30;10.00;;;21.90;99.90;;;;;;5113280;28;20225;-84
2022/05/31 10:01:06;;;;;;;10.35;10.05;;;21.80;99.90;;;;;;5108686;28;20233;-84
2022/05/31 10:03:44;;;;;;;10.40;10.10;;;21.80;99.90;;;;;;5119150;27;20193;-83
2022/05/31 10:06:23;;;;;;;10.40;10.10;;;22.00;99.90;;;;;;5119749;27;20266;-84
2022/05/31 10:08:53;;;;;;;10.48;10.18;;;22.40;99.90;;;;;;5123722;27;20284;-83
2022/05/31 10:14:26;;;;;;;11.13;10.82;;;23.10;99.90;;;;;;5123338;28;20215;-84
2022/05/31 10:16:55;;;;;;;10.82;10.52;;;23.20;99.90;;;;;;5113409;28;20231;-84
2022/05/31 10:22:21;;;;;;;10.90;10.60;;;22.80;99.90;;;;;;5086207;28;20240;-83
2022/05/31 10:24:50;;;;;;;10.35;10.05;;;22.70;99.90;;;;;;5120168;28;20239;-83
2022/05/31 10:27:28;;;;;;;10.48;10.18;;;22.70;99.90;;;;;;5119924;28;20260;-83
2022/05/31 10:30:15;;;;;;;10.65;10.35;;;22.90;99.90;;;;;;5120170;27;20232;-83
2022/05/31 10:32:47;;;;;;;10.50;10.20;;;23.30;99.90;;;;;;5119684;28;20240;-83
2022/05/31 10:35:23;;;;;;;10.45;10.15;;;23.30;99.90;;;;;;5112220;28;20213;-84
2022/05/31 10:38:04;;;;;;;10.65;10.35;;;23.50;99.90;;;;;;5100045;28;20237;-84
2022/05/31 10:40:48;;;;;;;10.40;10.10;;;23.60;99.90;;;;;;5099784;28;20233;-84
2022/05/31 10:43:35;;;;;;;10.48;10.18;;;23.70;99.90;;;;;;5095826;28;20245;-84
2022/05/31 10:46:13;;;;;;;10.52;10.23;;;23.80;99.90;;;;;;5099674;28;20425;-84
2022/05/31 10:48:54;;;;;;;10.60;10.30;;;24.10;99.90;;;;;;5103723;28;20225;-84
2022/05/31 10:51:39;;;;;;;11.10;10.80;;;24.30;99.90;;;;;;5122811;28;20228;-83
2022/05/31 10:54:53;;;;;;;10.90;10.60;;;24.40;99.90;;;;;;5124657;28;20292;-83
2022/05/31 10:57:39;;;;;;;10.90;10.60;;;24.40;99.90;;;;;;5124260;28;20232;-83
2022/05/31 11:00:19;;;;;;;10.88;10.57;;;24.30;99.90;;;;;;5123595;27;20247;-83
2022/05/31 11:03:24;;;;;;;10.82;10.52;;;23.90;99.90;;;;;;5102020;28;20256;-84
2022/05/31 11:06:21;;;;;;;10.77;10.48;;;23.90;99.90;;;;;;5102214;28;20225;-83
2022/05/31 11:12:20;;;;;;;10.90;10.60;;;23.50;99.90;;;;;;5102341;28;20225;-83
2022/05/31 11:15:08;;;;;;;11.02;10.73;;;23.70;99.90;;;;;;5108605;28;20232;-82
2022/05/31 11:18:05;;;;;;;11.20;10.90;;;23.40;99.90;;;;;;5119188;28;20285;-83
2022/05/31 11:20:41;;;;;;;10.90;10.60;;;23.60;99.90;;;;;;5096733;28;20226;-83
2022/05/31 11:23:40;;;;;;;10.95;10.65;;;23.90;99.90;;;;;;5102936;28;20228;-83
2022/05/31 11:26:33;;;;;;;11.75;11.35;;;23.80;99.90;;;;;;5102516;28;20233;-84
2022/05/31 11:29:20;;;;;;;11.52;11.13;;;24.00;99.90;;;;;;5082401;28;20234;-83
2022/05/31 11:31:58;;;;;;;11.10;10.80;;;23.90;99.90;;;;;;5081716;28;20273;-83
2022/05/31 11:34:39;;;;;;;11.27;10.95;;;23.70;99.90;;;;;;5087325;28;20360;-83
2022/05/31 11:37:35;;;;;;;11.15;10.85;;;23.60;99.90;;;;;;5107011;28;20232;-83
2022/05/31 11:40:21;;;;;;;11.48;11.07;;;23.50;99.90;;;;;;5102815;28;20230;-83
2022/05/31 11:43:41;;;;;;;11.20;10.90;;;23.50;99.90;;;;;;5103778;28;20210;-83
2022/05/31 11:46:21;;;;;;;11.30;11.00;;;23.60;99.90;;;;;;5105074;28;20240;-83
2022/05/31 11:49:00;;;;;;;11.13;10.82;;;24.00;99.90;;;;;;5104255;28;20240;-83
2022/05/31 11:51:54;;;;;;;11.57;11.18;;;24.20;99.90;;;;;;5102591;28;20263;-84
2022/05/31 11:54:44;;;;;;;11.80;11.40;;;24.20;99.90;;;;;;5118875;28;20292;-83
2022/05/31 11:57:29;;;;;;;11.70;11.30;;;24.20;99.90;;;;;;5123251;28;20316;-84
2022/05/31 12:00:07;;;;;;;11.70;11.30;;;24.10;99.90;;;;;;5118043;28;20228;-84
2022/05/31 12:02:46;;;;;;;11.30;11.00;;;24.00;99.90;;;;;;5097801;28;20235;-84
2022/05/31 12:05:24;;;;;;;11.77;11.38;;;23.90;99.90;;;;;;5101056;28;20297;-84
2022/05/31 12:08:01;;;;;;;11.23;10.90;;;23.70;99.90;;;;;;5102807;28;20265;-84
2022/05/31 12:10:31;;;;;;;11.90;11.50;;;23.70;99.90;;;;;;5102398;28;20233;-84
2022/05/31 12:13:10;;;;;;;11.38;11.02;;;23.90;99.90;;;;;;5101122;28;20268;-84
2022/05/31 12:15:46;;;;;;;11.00;10.70;;;24.30;99.90;;;;;;5101142;28;20277;-84
2022/05/31 12:18:25;;;;;;;10.98;10.68;;;24.80;99.90;;;;;;5102821;28;20248;-84
2022/05/31 12:21:03;;;;;;;10.80;10.50;;;25.30;99.90;;;;;;5081799;28;20253;-84
2022/05/31 12:23:41;;;;;;;10.95;10.65;;;25.50;99.90;;;;;;5081256;28;20229;-84
2022/05/31 12:26:23;;;;;;;10.90;10.60;;;25.50;99.90;;;;;;5080446;28;20222;-84
2022/05/31 12:29:00;;;;;;;10.70;10.40;;;25.50;99.90;;;;;;5097265;28;20265;-84
2022/05/31 12:31:36;;;;;;;11.05;10.75;;;25.70;99.90;;;;;;5095052;28;20225;-84
2022/05/31 12:34:44;;;;;;;11.32;11.02;;;25.70;99.90;;;;;;5118426;28;20236;-84
2022/05/31 12:37:13;;;;;;;11.35;11.02;;;26.40;99.90;;;;;;5124758;28;20241;-84
2022/05/31 12:39:50;;;;;;;11.60;11.20;;;27.20;99.90;;;;;;5141880;27;20232;-82
2022/05/31 12:42:54;;;;;;;11.00;10.70;;;27.30;99.90;;;;;;5142019;27;20204;-82
2022/05/31 12:45:40;;;;;;;10.90;10.60;;;27.30;99.90;;;;;;5130779;27;20327;-82
2022/05/31 12:48:27;;;;;;;10.90;10.60;;;26.60;99.90;;;;;;5104318;28;20233;-83
2022/05/31 12:51:24;;;;;;;10.82;10.52;;;25.90;99.90;;;;;;5101583;28;20253;-83
2022/05/31 12:54:12;;;;;;;10.80;10.50;;;25.30;99.90;;;;;;5100740;28;20295;-84
2022/05/31 12:57:26;;;;;;;10.80;10.50;;;24.90;99.90;;;;;;5101628;28;20233;-83
2022/05/31 13:00:01;;;;;;;10.88;10.57;;;24.30;99.90;;;;;;5101612;28;20244;-84
2022/05/31 13:02:42;;;;;;;11.10;10.80;;;24.10;99.90;;;;;;5102102;28;20229;-84
2022/05/31 13:06:04;;;;;;;11.30;11.00;;;24.00;99.90;;;;;;5101424;28;20264;-84
2022/05/31 13:09:00;;;;;;;11.20;10.90;;;24.00;99.90;;;;;;5102460;28;20236;-86
2022/05/31 13:27:31;;;;;;;11.30;11.00;;;23.90;99.90;;;;;;5118733;27;20226;-83
2022/05/31 13:30:26;;;;;;;11.02;10.73;;;23.40;99.90;;;;;;5103972;27;20320;-86
2022/05/31 13:33:01;;;;;;;11.38;11.07;;;23.10;99.90;;;;;;5090665;28;20226;-85
2022/05/31 13:35:32;;;;;;;11.50;11.20;;;22.80;99.90;;;;;;5092563;28;20243;-85
2022/05/31 13:38:19;;;;;;;10.98;10.68;;;22.60;99.90;;;;;;5097816;28;20241;-85
2022/05/31 13:40:55;;;;;;;11.00;10.70;;;22.40;99.90;;;;;;5091115;28;20229;-85
2022/05/31 13:43:28;;;;;;;10.88;10.57;;;22.20;99.90;;;;;;5098377;28;20748;-85
2022/05/31 13:46:14;;;;;;;10.80;10.50;;;22.20;99.90;;;;;;5097771;28;20229;-85
2022/05/31 13:51:49;;;;;;;11.10;10.80;;;22.20;99.90;;;;;;5098300;28;20291;-88
2022/05/31 13:54:51;;;;;;;11.00;10.70;;;22.10;99.90;;;;;;5096857;28;20241;-85
2022/05/31 13:57:29;;;;;;;11.30;11.00;;;22.10;99.90;;;;;;5095581;28;20229;-84
2022/05/31 13:59:58;;;;;;;11.23;10.93;;;22.10;99.90;;;;;;5096500;28;20229;-85